Time;durP1;ratioP1;P1;durP2;ratioP2;P2;SDS_P1;SDS_P2;PMS_P1;PMS_P2;Temp;Humidity;BMP_temperature;BMP_pressure;BME280_temperature;BME280_humidity;BME280_pressure;Samples;Min_cycle;Max_cycle;Signal;HPM_P1;HPM_P2
2023/10/16 00:01:13;;;;;;;4.97;3.40;;;;;;;4.79;100.00;98294.25;6254159;28;20238;-55
2023/10/16 00:04:18;;;;;;;4.43;3.20;;;;;;;4.84;100.00;98295.31;6256285;28;20743;-55
2023/10/16 00:07:27;;;;;;;5.07;3.30;;;;;;;4.70;100.00;98276.91;6253258;28;20268;-55
2023/10/16 00:10:35;;;;;;;2.93;2.73;;;;;;;4.87;100.00;98299.38;6258079;28;20244;-55
2023/10/16 00:13:40;;;;;;;2.90;2.60;;;;;;;4.81;100.00;98293.03;6256799;28;20233;-54
2023/10/16 00:16:45;;;;;;;3.00;2.70;;;;;;;4.75;100.00;98288.53;6234741;28;20243;-54
2023/10/16 00:19:54;;;;;;;3.20;2.90;;;;;;;4.75;100.00;98295.63;6258545;28;20236;-56
2023/10/16 00:22:59;;;;;;;5.00;3.10;;;;;;;4.65;100.00;98299.41;6265271;28;20232;-56
2023/10/16 00:26:03;;;;;;;2.77;2.30;;;;;;;4.62;100.00;98294.50;6258312;28;20236;-55
2023/10/16 00:29:35;;;;;;;7.23;2.50;;;;;;;4.55;100.00;98288.34;6258800;28;20706;-55
2023/10/16 00:32:37;;;;;;;3.40;2.50;;;;;;;4.54;100.00;98297.28;6253304;28;20237;-56
2023/10/16 00:35:53;;;;;;;3.27;2.40;;;;;;;4.48;100.00;98291.91;6257340;28;20237;-56
2023/10/16 00:38:58;;;;;;;4.03;2.30;;;;;;;4.46;100.00;98289.47;6258210;28;20319;-56
2023/10/16 00:42:08;;;;;;;2.80;2.30;;;;;;;4.27;100.00;98276.91;6254299;28;20224;-56
2023/10/16 00:45:13;;;;;;;3.37;2.20;;;;;;;4.39;100.00;98299.16;6255372;28;20204;-56
2023/10/16 00:48:18;;;;;;;4.53;2.40;;;;;;;4.48;100.00;98278.72;6240447;28;20345;-55
2023/10/16 00:51:24;;;;;;;4.43;2.77;;;;;;;4.56;100.00;98279.44;6255463;28;20229;-56
2023/10/16 00:54:42;;;;;;;4.50;2.30;;;;;;;4.51;100.00;98275.72;6259334;28;20228;-56
2023/10/16 00:57:49;;;;;;;3.90;2.30;;;;;;;4.60;100.00;98282.50;6252972;28;20294;-56
2023/10/16 01:00:57;;;;;;;3.03;2.10;;;;;;;4.51;100.00;98273.91;6256692;28;20236;-55
2023/10/16 01:04:04;;;;;;;2.63;2.07;;;;;;;4.53;100.00;98281.63;6256411;28;20239;-55
2023/10/16 01:07:15;;;;;;;3.13;2.50;;;;;;;4.82;100.00;98288.59;6253136;28;20208;-56
2023/10/16 01:10:22;;;;;;;3.53;2.10;;;;;;;4.86;100.00;98288.00;6255361;28;20578;-56
2023/10/16 01:13:28;;;;;;;2.67;1.80;;;;;;;4.80;100.00;98285.31;6253255;28;20240;-56
2023/10/16 01:16:33;;;;;;;2.37;2.00;;;;;;;4.70;100.00;98296.22;6255309;28;20242;-56
2023/10/16 01:19:44;;;;;;;2.40;2.20;;;;;;;4.60;100.00;98285.97;6234431;28;20231;-55
2023/10/16 01:22:52;;;;;;;2.07;1.83;;;;;;;4.50;100.00;98298.66;6248823;28;20231;-57
2023/10/16 01:26:00;;;;;;;2.70;2.13;;;;;;;4.48;100.00;98299.81;6241509;28;20232;-55
2023/10/16 01:29:09;;;;;;;2.93;1.93;;;;;;;4.37;100.00;98285.31;6233007;28;20235;-55
2023/10/16 01:32:15;;;;;;;2.90;2.30;;;;;;;4.36;100.00;98299.50;6247744;28;20797;-54
2023/10/16 01:35:21;;;;;;;3.17;1.90;;;;;;;4.46;100.00;98292.13;6240207;28;20230;-55
2023/10/16 01:38:28;;;;;;;4.70;2.40;;;;;;;4.51;100.00;98279.16;6248601;28;20236;-54
2023/10/16 01:41:34;;;;;;;4.30;1.83;;;;;;;4.75;100.00;98299.09;6247902;28;20229;-54
2023/10/16 01:44:43;;;;;;;2.40;1.90;;;;;;;4.65;100.00;98293.31;6214460;28;20229;-55
2023/10/16 01:47:48;;;;;;;2.13;1.93;;;;;;;4.71;100.00;98297.84;6254624;28;20329;-54
2023/10/16 01:50:55;;;;;;;2.03;1.83;;;;;;;4.70;100.00;98296.22;6254821;28;20242;-55
2023/10/16 01:53:59;;;;;;;3.37;2.57;;;;;;;4.72;100.00;98296.81;6237147;28;20232;-54
2023/10/16 01:57:02;;;;;;;1.80;1.50;;;;;;;4.61;100.00;98300.78;6225504;28;20320;-56
2023/10/16 02:00:16;;;;;;;1.77;1.67;;;;;;;4.58;100.00;98300.34;6248330;28;20689;-54
2023/10/16 02:03:22;;;;;;;1.50;1.40;;;;;;;4.49;100.00;98304.94;6248734;28;20217;-55
2023/10/16 02:06:27;;;;;;;2.67;1.97;;;;;;;4.37;100.00;98307.22;6248041;28;20704;-54
2023/10/16 02:09:36;;;;;;;1.77;1.67;;;;;;;4.42;100.00;98313.78;6245781;28;20581;-54
2023/10/16 02:12:41;;;;;;;3.50;1.90;;;;;;;4.40;100.00;98314.78;6247793;28;20239;-54
2023/10/16 02:15:47;;;;;;;5.07;1.90;;;;;;;4.53;100.00;98303.56;6246553;28;20283;-56
2023/10/16 02:18:56;;;;;;;2.00;1.80;;;;;;;4.62;100.00;98312.97;6263217;28;20239;-55
2023/10/16 02:21:58;;;;;;;3.10;1.83;;;;;;;4.64;100.00;98304.88;6245436;28;20261;-54
2023/10/16 02:25:01;;;;;;;2.97;1.77;;;;;;;4.49;100.00;98302.31;6238629;28;20369;-56
2023/10/16 02:28:13;;;;;;;2.30;1.60;;;;;;;4.50;100.00;98296.00;6257683;28;20286;-56
2023/10/16 02:31:18;;;;;;;2.67;1.70;;;;;;;4.45;100.00;98294.94;6256012;28;20240;-56
2023/10/16 02:34:23;;;;;;;1.97;1.57;;;;;;;4.42;100.00;98282.13;6256991;28;20719;-54
2023/10/16 02:37:30;;;;;;;1.80;1.70;;;;;;;4.30;100.00;98290.53;6239676;28;20246;-54
2023/10/16 02:40:35;;;;;;;2.87;1.80;;;;;;;4.23;100.00;98292.25;6240996;28;20289;-56
2023/10/16 02:43:45;;;;;;;2.20;1.73;;;;;;;4.53;99.34;98295.66;6253151;28;20318;-56
2023/10/16 02:46:51;;;;;;;1.60;1.50;;;;;;;4.54;99.92;98288.56;6244721;28;20704;-55
2023/10/16 02:49:58;;;;;;;2.53;1.87;;;;;;;4.59;99.59;98297.53;6265061;28;20708;-56
2023/10/16 02:53:00;;;;;;;2.27;1.87;;;;;;;4.58;100.00;98289.78;6239850;28;20328;-55
2023/10/16 02:56:08;;;;;;;3.37;1.63;;;;;;;4.46;100.00;98291.28;6245288;28;20267;-55
2023/10/16 02:59:18;;;;;;;3.37;1.33;;;;;;;4.22;100.00;98287.19;6255407;28;20227;-54
2023/10/16 03:02:27;;;;;;;2.13;1.40;;;;;;;4.34;100.00;98285.72;6253902;28;20235;-56
2023/10/16 03:05:31;;;;;;;2.40;1.60;;;;;;;4.39;100.00;98294.69;6255956;28;20223;-55
2023/10/16 03:08:36;;;;;;;1.73;1.40;;;;;;;4.33;100.00;98297.25;6258118;28;20325;-55
2023/10/16 03:11:40;;;;;;;1.93;1.47;;;;;;;4.19;100.00;98304.22;6254324;28;20323;-57
2023/10/16 03:14:46;;;;;;;1.63;1.47;;;;;;;4.11;100.00;98312.22;6256409;28;20234;-57
2023/10/16 03:17:51;;;;;;;1.67;1.50;;;;;;;4.12;100.00;98308.56;6239687;28;20371;-54
2023/10/16 03:24:19;;;;;;;3.00;1.43;;;;;;;4.07;100.00;98326.75;6235232;28;20236;-56
2023/10/16 03:27:30;;;;;;;3.00;1.53;;;;;;;3.93;100.00;98330.22;6243008;28;20224;-52
2023/10/16 03:30:42;;;;;;;1.60;1.20;;;;;;;3.84;100.00;98337.41;6253343;28;20257;-53
2023/10/16 03:33:56;;;;;;;4.67;1.50;;;;;;;3.74;100.00;98342.13;6240550;28;20223;-55
2023/10/16 03:37:04;;;;;;;1.87;1.50;;;;;;;3.66;100.00;98340.44;6250321;28;20227;-53
2023/10/16 03:40:11;;;;;;;2.53;1.37;;;;;;;3.37;100.00;98314.88;6234460;28;20281;-55
2023/10/16 03:43:16;;;;;;;3.43;1.67;;;;;;;3.49;100.00;98341.59;6248739;28;20235;-55
2023/10/16 03:46:22;;;;;;;6.57;1.53;;;;;;;3.46;100.00;98337.50;6244870;28;20587;-55
2023/10/16 03:49:25;;;;;;;2.80;1.63;;;;;;;3.54;100.00;98339.22;6251563;28;20234;-55
2023/10/16 03:52:30;;;;;;;2.00;1.57;;;;;;;3.49;100.00;98334.50;6243412;28;20235;-54
2023/10/16 03:55:49;;;;;;;1.70;1.57;;;;;;;3.51;100.00;98329.88;6225253;28;20591;-55
2023/10/16 03:58:55;;;;;;;2.20;1.43;;;;;;;3.52;100.00;98343.88;6254842;28;20715;-55
2023/10/16 04:02:04;;;;;;;2.90;1.70;;;;;;;3.48;100.00;98339.94;6246174;28;20235;-55
2023/10/16 04:08:32;;;;;;;2.87;2.30;;;;;;;3.48;100.00;98337.31;6240992;28;20734;-55
2023/10/16 04:11:37;;;;;;;3.13;1.63;;;;;;;3.24;100.00;98304.13;6247128;28;20743;-55
2023/10/16 04:14:55;;;;;;;3.00;1.80;;;;;;;3.23;100.00;98324.38;6251016;28;20266;-54
2023/10/16 04:18:04;;;;;;;2.03;1.80;;;;;;;3.19;100.00;98336.28;6237405;28;20714;-56
2023/10/16 04:27:33;;;;;;;2.90;1.47;;;;;;;2.97;100.00;98334.50;6242519;28;20239;-55
2023/10/16 04:30:39;;;;;;;2.63;1.80;;;;;;;2.87;100.00;98339.19;6234818;28;20707;-56
2023/10/16 04:34:02;;;;;;;3.10;1.67;;;;;;;2.78;100.00;98341.88;6246318;28;20224;-56
2023/10/16 04:47:07;;;;;;;1.73;1.57;;;;;;;2.51;100.00;98340.59;6250209;28;20308;-55
2023/10/16 04:50:09;;;;;;;2.77;2.20;;;;;;;2.28;100.00;98319.53;6245017;28;20227;-55
2023/10/16 04:53:12;;;;;;;2.70;1.80;;;;;;;2.25;100.00;98345.31;6252658;28;20219;-54
2023/10/16 04:56:45;;;;;;;2.23;1.67;;;;;;;2.04;100.00;98317.03;6247986;28;20222;-54
2023/10/16 05:00:00;;;;;;;2.73;2.30;;;;;;;2.05;100.00;98329.16;6250164;28;20225;-54
2023/10/16 05:03:23;;;;;;;2.90;1.87;;;;;;;1.86;100.00;98317.25;6253326;28;20320;-56
2023/10/16 05:16:35;;;;;;;5.77;2.27;;;;;;;1.74;100.00;98352.78;6251800;28;20641;-56
2023/10/16 05:19:46;;;;;;;3.77;2.23;;;;;;;1.67;100.00;98346.53;6241038;28;20735;-57
2023/10/16 06:16:47;;;;;;;2.70;2.50;;;;;;;1.76;100.00;98380.50;6238881;28;20277;-56
2023/10/16 06:19:51;;;;;;;3.00;2.53;;;;;;;1.88;100.00;98388.84;6253142;28;20233;-56
2023/10/16 06:22:53;;;;;;;3.87;2.80;;;;;;;1.98;100.00;98399.16;6247233;28;20238;-56
2023/10/16 06:26:01;;;;;;;3.97;2.97;;;;;;;2.04;100.00;98390.59;6251831;28;20226;-56
2023/10/16 06:29:03;;;;;;;5.33;3.30;;;;;;;2.22;100.00;98398.25;6247576;28;20281;-58
2023/10/16 06:32:20;;;;;;;4.23;3.80;;;;;;;2.30;100.00;98393.75;6262957;28;20290;-56
2023/10/16 06:35:22;;;;;;;7.23;3.80;;;;;;;2.40;100.00;98385.66;6242057;28;20267;-56
2023/10/16 06:38:25;;;;;;;7.77;4.03;;;;;;;2.54;100.00;98381.50;6248198;28;20931;-55
2023/10/16 06:41:27;;;;;;;8.07;6.13;;;;;;;2.73;100.00;98364.44;6253700;28;20227;-56
2023/10/16 06:44:33;;;;;;;7.63;4.80;;;;;;;2.95;100.00;98368.88;6256201;28;20231;-53
2023/10/16 06:47:35;;;;;;;8.77;5.40;;;;;;;3.32;100.00;98344.38;6256034;28;20690;-57
2023/10/16 06:50:45;;;;;;;6.23;4.40;;;;;;;3.76;100.00;98364.69;6258756;28;20231;-58
2023/10/16 06:53:48;;;;;;;5.20;4.27;;;;;;;4.11;100.00;98362.31;6238105;28;20661;-57
2023/10/16 06:56:52;;;;;;;6.20;3.80;;;;;;;4.41;100.00;98376.28;6260981;28;20233;-56
2023/10/16 06:59:55;;;;;;;3.97;3.20;;;;;;;4.39;100.00;98357.19;6255337;28;20733;-54
2023/10/16 07:03:01;;;;;;;4.23;3.33;;;;;;;4.55;100.00;98370.16;6231697;28;20369;-56
2023/10/16 07:06:05;;;;;;;4.17;2.77;;;;;;;4.56;100.00;98379.69;6261510;28;20223;-56
2023/10/16 07:09:09;;;;;;;3.33;2.57;;;;;;;4.62;100.00;98380.75;6257231;28;20211;-58
2023/10/16 07:12:13;;;;;;;3.33;2.00;;;;;;;4.48;100.00;98353.41;6263998;28;20320;-56
2023/10/16 07:15:16;;;;;;;2.60;2.30;;;;;;;4.68;100.00;98371.28;6264031;28;20234;-55
2023/10/16 07:18:24;;;;;;;4.40;2.37;;;;;;;4.71;100.00;98373.56;6255339;28;20254;-55
2023/10/16 07:21:26;;;;;;;3.43;2.80;;;;;;;4.87;100.00;98371.47;6242631;28;20583;-56
2023/10/16 07:24:34;;;;;;;3.13;2.50;;;;;;;4.92;100.00;98378.84;6259928;28;20768;-55
2023/10/16 07:27:37;;;;;;;3.73;2.80;;;;;;;5.02;100.00;98371.41;6242390;28;20229;-56
2023/10/16 07:30:42;;;;;;;3.57;2.70;;;;;;;5.47;100.00;98377.31;6263596;28;20231;-54
2023/10/16 07:33:50;;;;;;;3.90;2.50;;;;;;;5.58;100.00;98379.41;6266734;28;20819;-55
2023/10/16 07:36:55;;;;;;;3.33;2.53;;;;;;;5.82;98.29;98382.63;6240477;28;20241;-55
2023/10/16 07:39:57;;;;;;;2.90;2.50;;;;;;;5.88;96.72;98377.38;6265728;28;20227;-55
2023/10/16 07:43:00;;;;;;;3.57;2.10;;;;;;;5.98;99.87;98370.94;6257673;28;20368;-56
2023/10/16 07:46:16;;;;;;;3.03;1.97;;;;;;;6.00;99.93;98371.56;6261947;28;20594;-54
2023/10/16 07:49:25;;;;;;;3.90;2.20;;;;;;;6.07;98.72;98375.88;6265351;28;20284;-52
2023/10/16 07:52:29;;;;;;;3.17;1.97;;;;;;;6.19;96.85;98376.94;6261670;28;20241;-56
2023/10/16 07:55:39;;;;;;;4.77;2.40;;;;;;;6.27;98.41;98383.09;6264284;28;20228;-55
2023/10/16 07:58:48;;;;;;;3.47;1.97;;;;;;;6.23;93.07;98355.41;6253558;28;20235;-55
2023/10/16 08:01:57;;;;;;;2.23;1.80;;;;;;;6.52;94.99;98378.13;6241578;28;20226;-56
2023/10/16 08:05:03;;;;;;;3.00;1.87;;;;;;;6.61;94.11;98377.75;6246652;28;20265;-56
2023/10/16 08:08:11;;;;;;;2.37;2.03;;;;;;;6.80;86.60;98376.16;6263945;28;20228;-56
2023/10/16 08:11:19;;;;;;;1.87;1.53;;;;;;;6.95;86.43;98370.69;6244267;28;20265;-53
2023/10/16 08:14:22;;;;;;;1.93;1.70;;;;;;;7.13;85.21;98362.13;6267536;28;20307;-55
2023/10/16 08:17:25;;;;;;;2.63;1.70;;;;;;;7.21;86.15;98354.00;6257526;28;20237;-54
2023/10/16 08:20:49;;;;;;;1.53;1.23;;;;;;;7.28;85.15;98364.59;6252017;28;20238;-53
2023/10/16 08:23:54;;;;;;;2.70;1.50;;;;;;;7.43;80.61;98357.25;6267325;28;20642;-52
2023/10/16 08:27:10;;;;;;;2.13;1.50;;;;;;;7.60;79.50;98362.97;6246233;28;20236;-52
2023/10/16 08:33:42;;;;;;;1.80;1.27;;;;;;;7.72;79.29;98367.41;6193243;28;20716;-55
2023/10/16 08:36:51;;;;;;;1.73;1.00;;;;;;;7.80;79.95;98362.94;6193300;28;20604;-53
2023/10/16 08:39:56;;;;;;;2.83;1.20;;;;;;;7.83;76.10;98371.31;6195562;28;20236;-54
2023/10/16 08:43:01;;;;;;;3.13;1.03;;;;;;;7.88;78.67;98360.88;6193277;28;20245;-54
2023/10/16 08:46:10;;;;;;;1.27;1.00;;;;;;;8.24;73.10;98356.91;6194275;28;20228;-55
2023/10/16 08:49:12;;;;;;;2.53;1.40;;;;;;;8.36;71.88;98349.91;6191727;28;20248;-55
2023/10/16 08:52:20;;;;;;;2.90;1.33;;;;;;;8.44;72.14;98344.38;6192180;28;20232;-54
2023/10/16 08:55:26;;;;;;;2.17;1.40;;;;;;;8.50;71.05;98359.47;6192804;28;20271;-54
2023/10/16 08:58:34;;;;;;;1.40;1.00;;;;;;;8.48;74.57;98344.78;6192601;28;20237;-52
2023/10/16 09:01:37;;;;;;;3.13;0.90;;;;;;;8.54;72.82;98354.53;6197315;28;20226;-56
2023/10/16 09:04:43;;;;;;;2.37;1.20;;;;;;;8.65;73.74;98342.44;6197351;28;20364;-53
2023/10/16 09:07:47;;;;;;;4.27;1.10;;;;;;;8.84;68.98;98356.63;6192708;28;20317;-53
2023/10/16 09:10:51;;;;;;;1.80;0.93;;;;;;;8.85;69.80;98350.28;6234359;28;20231;-54
2023/10/16 09:13:53;;;;;;;1.20;0.87;;;;;;;8.97;64.98;98345.94;6248582;28;20588;-52
2023/10/16 09:16:59;;;;;;;2.37;1.00;;;;;;;9.02;68.94;98346.91;6247971;28;20273;-55
2023/10/16 09:20:13;;;;;;;2.80;1.30;;;;;;;9.15;67.22;98345.97;6258720;28;20573;-54
2023/10/16 09:23:23;;;;;;;1.67;1.03;;;;;;;9.37;69.78;98343.78;6255057;28;20242;-54
2023/10/16 09:26:37;;;;;;;2.87;1.20;;;;;;;9.39;63.32;98356.84;6252774;28;20645;-54
2023/10/16 09:29:46;;;;;;;1.43;0.93;;;;;;;9.51;61.08;98339.97;6244447;28;20231;-54
2023/10/16 09:32:49;;;;;;;1.47;0.97;;;;;;;9.35;61.39;98337.03;6254273;28;20223;-55
2023/10/16 09:36:00;;;;;;;2.77;1.23;;;;;;;9.42;67.10;98340.47;6260869;28;20313;-54
2023/10/16 09:39:16;;;;;;;2.13;1.00;;;;;;;9.47;65.00;98337.97;6247877;28;20231;-55
2023/10/16 09:42:25;;;;;;;1.40;0.73;;;;;;;9.65;59.87;98331.84;6253125;28;20216;-55
2023/10/16 09:45:29;;;;;;;1.00;0.80;;;;;;;9.68;59.17;98336.75;6252762;28;20230;-57
2023/10/16 09:48:32;;;;;;;0.90;0.70;;;;;;;9.72;56.98;98338.75;6250157;28;20235;-56
2023/10/16 09:51:35;;;;;;;2.07;0.80;;;;;;;9.63;55.42;98333.94;6252540;28;20243;-54
2023/10/16 09:54:41;;;;;;;2.77;0.90;;;;;;;9.29;55.95;98317.44;6255278;28;20232;-55
2023/10/16 09:57:55;;;;;;;2.47;1.10;;;;;;;9.31;57.46;98315.41;6242656;28;20240;-56
2023/10/16 10:01:06;;;;;;;1.60;0.90;;;;;;;9.47;62.22;98333.47;6252397;28;20277;-55
2023/10/16 10:04:14;;;;;;;1.43;0.67;;;;;;;9.60;60.11;98323.72;6250886;28;20309;-55
2023/10/16 10:07:34;;;;;;;1.03;0.57;;;;;;;9.69;61.67;98323.22;6254116;28;20234;-53
2023/10/16 10:11:04;;;;;;;2.57;1.30;;;;;;;9.78;61.62;98311.25;6252463;28;20245;-56
2023/10/16 10:14:26;;;;;;;1.13;0.83;;;;;;;9.95;59.10;98310.66;6262100;28;20238;-54
2023/10/16 10:17:34;;;;;;;1.20;0.80;;;;;;;10.01;59.08;98305.28;6265686;28;20245;-55
2023/10/16 10:20:41;;;;;;;1.57;1.03;;;;;;;9.92;59.07;98303.13;6263731;28;20252;-54
2023/10/16 10:23:43;;;;;;;1.60;0.90;;;;;;;10.09;58.68;98306.81;6267374;28;20237;-54
2023/10/16 10:26:50;;;;;;;2.87;0.80;;;;;;;10.12;59.30;98295.72;6254745;28;20229;-55
2023/10/16 10:30:01;;;;;;;0.83;0.73;;;;;;;10.08;57.86;98292.69;6243817;28;20231;-53
2023/10/16 10:33:04;;;;;;;3.50;1.00;;;;;;;10.09;60.10;98291.66;6246792;28;20854;-55
2023/10/16 10:36:25;;;;;;;2.10;1.10;;;;;;;10.08;57.48;98291.88;6260371;28;20214;-54
2023/10/16 10:42:41;;;;;;;2.00;1.20;;;;;;;10.05;61.78;98282.50;6263684;28;20229;-53
2023/10/16 10:45:51;;;;;;;2.50;1.10;;;;;;;10.01;58.99;98268.00;6251171;28;20234;-53
2023/10/16 10:48:56;;;;;;;2.57;1.20;;;;;;;10.04;55.75;98267.53;6254160;28;20230;-54
2023/10/16 10:52:07;;;;;;;1.20;0.80;;;;;;;9.96;57.40;98267.06;6263834;28;20225;-55
2023/10/16 10:55:21;;;;;;;1.50;0.93;;;;;;;9.76;58.46;98248.66;6269383;28;20232;-54
2023/10/16 10:58:37;;;;;;;1.07;0.70;;;;;;;9.68;60.01;98259.59;6234993;28;20587;-53
2023/10/16 11:02:06;;;;;;;3.70;1.40;;;;;;;9.66;59.40;98254.50;6252811;28;20242;-54
2023/10/16 11:05:31;;;;;;;1.20;1.00;;;;;;;9.69;59.16;98247.91;6255778;28;20325;-54
2023/10/16 11:08:35;;;;;;;2.20;1.13;;;;;;;9.84;60.00;98245.69;6269544;28;20233;-54
2023/10/16 11:11:40;;;;;;;2.40;1.27;;;;;;;10.11;58.86;98242.72;6267402;28;20237;-53
2023/10/16 11:14:42;;;;;;;1.67;0.93;;;;;;;10.11;57.14;98237.38;6249454;28;20234;-53
2023/10/16 11:17:46;;;;;;;2.10;1.10;;;;;;;10.03;58.50;98241.97;6265691;28;20587;-54
2023/10/16 11:20:52;;;;;;;2.37;1.00;;;;;;;10.00;59.18;98221.16;6272550;28;20233;-52
2023/10/16 11:23:56;;;;;;;4.03;1.17;;;;;;;10.17;58.52;98231.97;6263883;28;20239;-54
2023/10/16 11:27:05;;;;;;;2.53;1.53;;;;;;;10.42;57.86;98234.53;6256876;28;20244;-53
2023/10/16 11:30:18;;;;;;;2.03;1.53;;;;;;;10.43;57.65;98225.47;6258969;28;20577;-51
2023/10/16 11:34:00;;;;;;;2.00;1.27;;;;;;;10.57;57.90;98226.91;6265114;28;20222;-55
2023/10/16 11:37:06;;;;;;;2.10;1.30;;;;;;;10.72;54.73;98233.66;6267377;28;20242;-55
2023/10/16 11:40:18;;;;;;;2.37;1.20;;;;;;;10.67;56.22;98223.69;6268538;28;20254;-53
2023/10/16 11:43:21;;;;;;;2.13;1.10;;;;;;;10.77;55.27;98212.47;6239387;28;20261;-55
2023/10/16 11:46:34;;;;;;;2.97;1.00;;;;;;;10.87;55.45;98218.03;6272841;28;20241;-52
2023/10/16 11:49:37;;;;;;;3.63;1.10;;;;;;;10.84;56.24;98189.22;6273768;28;20613;-55
2023/10/16 11:52:40;;;;;;;1.00;0.90;;;;;;;10.52;55.94;98152.19;6256484;28;20788;-53
2023/10/16 11:55:45;;;;;;;2.13;1.10;;;;;;;10.67;55.64;98197.03;6266982;28;20724;-55
2023/10/16 11:58:47;;;;;;;2.17;1.17;;;;;;;10.59;56.18;98208.88;6271387;28;20240;-53
2023/10/16 12:02:38;;;;;;;1.10;0.90;;;;;;;10.54;56.35;98206.06;6268744;28;20743;-54
2023/10/16 12:05:12;;;;;;;2.70;1.03;;;;;;;10.53;54.60;98200.97;6264295;28;20236;-52
2023/10/16 12:08:18;;;;;;;1.63;0.80;;;;;;;10.52;55.63;98200.16;6282612;28;20225;-51
2023/10/16 12:11:20;;;;;;;1.43;0.80;;;;;;;10.54;57.26;98199.91;6263843;28;20245;-52
2023/10/16 12:14:23;;;;;;;2.00;1.10;;;;;;;10.54;57.50;98189.25;6266780;28;20486;-54
2023/10/16 12:17:28;;;;;;;0.97;0.70;;;;;;;10.57;55.45;98194.13;6251330;28;20234;-54
2023/10/16 12:20:30;;;;;;;2.53;1.20;;;;;;;10.52;55.30;98192.16;6269741;28;20245;-54
2023/10/16 12:23:36;;;;;;;2.10;0.70;;;;;;;10.53;56.04;98203.63;6260603;28;20370;-53
2023/10/16 12:26:42;;;;;;;0.50;0.50;;;;;;;10.50;57.06;98194.25;6233256;28;20366;-54
2023/10/16 12:29:45;;;;;;;1.00;0.70;;;;;;;10.42;58.06;98173.25;6221113;28;20235;-55
2023/10/16 12:32:47;;;;;;;1.30;0.63;;;;;;;10.63;59.55;98195.88;6227277;28;20226;-53
2023/10/16 12:35:49;;;;;;;1.50;0.67;;;;;;;10.66;59.02;98187.44;6223483;28;20250;-52
2023/10/16 12:38:53;;;;;;;1.10;0.80;;;;;;;10.71;59.38;98190.22;6219767;28;20233;-53
2023/10/16 12:41:57;;;;;;;1.43;0.80;;;;;;;10.70;58.47;98185.94;6220259;28;20244;-55
2023/10/16 12:45:00;;;;;;;2.27;0.83;;;;;;;10.75;55.67;98183.41;6218671;28;20708;-55
2023/10/16 12:48:04;;;;;;;2.20;1.00;;;;;;;10.75;54.85;98185.25;6223318;28;20227;-54
2023/10/16 12:51:10;;;;;;;1.13;0.90;;;;;;;10.78;54.08;98180.25;6218140;28;20223;-52
2023/10/16 12:54:15;;;;;;;3.23;1.07;;;;;;;10.89;53.04;98180.53;6219824;28;20227;-52
2023/10/16 12:57:18;;;;;;;1.30;0.90;;;;;;;10.77;53.14;98157.31;6217749;28;20226;-54
2023/10/16 13:00:23;;;;;;;1.30;0.87;;;;;;;10.78;53.70;98163.47;6209220;28;20264;-55
2023/10/16 13:03:26;;;;;;;1.90;1.00;;;;;;;10.76;54.12;98165.56;6219042;28;20239;-53
2023/10/16 13:06:29;;;;;;;1.97;0.77;;;;;;;10.82;53.56;98175.28;6226735;28;20242;-55
2023/10/16 13:09:32;;;;;;;1.33;1.00;;;;;;;10.76;53.82;98171.69;6240923;28;20236;-54
2023/10/16 13:12:36;;;;;;;2.07;1.10;;;;;;;10.79;54.67;98165.09;6216427;28;20633;-52
2023/10/16 13:15:39;;;;;;;2.87;0.90;;;;;;;10.67;54.89;98140.28;6226412;28;20313;-54
2023/10/16 13:18:43;;;;;;;2.43;1.10;;;;;;;10.80;54.09;98162.19;6242450;28;20891;-53
2023/10/16 13:21:51;;;;;;;2.77;0.93;;;;;;;10.98;53.18;98157.78;6247133;28;20234;-53
2023/10/16 13:24:54;;;;;;;2.60;0.90;;;;;;;11.12;52.98;98153.84;6239549;28;20239;-54
2023/10/16 13:27:58;;;;;;;3.27;0.90;;;;;;;10.90;54.74;98148.28;6246143;28;20248;-53
2023/10/16 13:31:01;;;;;;;2.23;0.77;;;;;;;10.90;56.24;98147.50;6244688;28;20277;-54
2023/10/16 13:34:04;;;;;;;0.90;0.63;;;;;;;10.93;56.71;98152.34;6242712;28;20239;-52
2023/10/16 13:37:09;;;;;;;3.10;0.90;;;;;;;10.99;55.70;98154.09;6243054;28;20235;-51
2023/10/16 13:40:22;;;;;;;1.00;0.67;;;;;;;11.02;57.14;98157.09;6246073;28;20234;-53
2023/10/16 13:43:24;;;;;;;1.20;0.90;;;;;;;11.01;57.85;98160.81;6246249;28;20229;-53
2023/10/16 13:46:26;;;;;;;1.63;0.80;;;;;;;10.99;57.06;98157.56;6242264;28;20615;-53
2023/10/16 13:49:29;;;;;;;1.93;1.00;;;;;;;11.00;56.17;98145.84;6244795;28;20605;-52
2023/10/16 13:52:31;;;;;;;1.70;0.93;;;;;;;10.88;56.00;98147.69;6249431;28;20231;-53
2023/10/16 13:55:34;;;;;;;1.67;0.87;;;;;;;10.87;54.96;98151.41;6247358;28;20221;-54
2023/10/16 13:58:37;;;;;;;3.50;1.13;;;;;;;10.81;52.21;98153.16;6245225;28;20243;-52
2023/10/16 14:01:40;;;;;;;2.17;1.03;;;;;;;10.75;52.77;98156.75;6247511;28;20242;-55
2023/10/16 14:04:46;;;;;;;1.20;0.80;;;;;;;10.75;54.01;98151.41;6251919;28;20219;-54
2023/10/16 14:07:48;;;;;;;1.50;0.80;;;;;;;10.72;55.39;98153.72;6250307;28;20246;-53
2023/10/16 14:10:57;;;;;;;1.70;1.00;;;;;;;10.67;56.00;98145.63;6252902;28;20373;-53
2023/10/16 14:14:00;;;;;;;1.90;1.10;;;;;;;10.66;52.76;98146.66;6246479;28;20230;-54
2023/10/16 14:17:03;;;;;;;2.47;0.80;;;;;;;10.65;53.56;98145.03;6248940;28;20762;-51
2023/10/16 14:20:12;;;;;;;2.47;0.90;;;;;;;10.58;53.75;98140.63;6246244;28;20332;-55
2023/10/16 14:23:28;;;;;;;1.60;0.80;;;;;;;10.51;56.75;98147.91;6231099;28;20243;-51
2023/10/16 14:26:45;;;;;;;2.60;0.80;;;;;;;10.37;59.19;98135.84;6252917;28;20328;-54
2023/10/16 14:29:48;;;;;;;1.00;0.60;;;;;;;10.31;60.84;98134.91;6247542;28;20744;-51
2023/10/16 14:32:51;;;;;;;2.73;0.90;;;;;;;10.19;62.40;98139.34;6246304;28;20226;-53
2023/10/16 14:35:53;;;;;;;0.67;0.60;;;;;;;10.11;62.87;98142.38;6242296;28;20234;-54
2023/10/16 14:38:56;;;;;;;1.20;0.63;;;;;;;10.04;64.78;98138.97;6244622;28;20313;-53
2023/10/16 14:42:01;;;;;;;2.53;1.13;;;;;;;9.88;62.73;98121.78;6254726;28;20229;-53
2023/10/16 14:45:06;;;;;;;0.93;0.77;;;;;;;9.76;63.40;98126.28;6251795;28;20237;-53
2023/10/16 14:48:12;;;;;;;1.00;0.70;;;;;;;9.62;63.82;98108.88;6254608;28;20218;-53
2023/10/16 14:51:18;;;;;;;4.10;0.90;;;;;;;9.67;65.17;98122.31;6252762;28;20221;-53
2023/10/16 14:54:21;;;;;;;2.80;0.70;;;;;;;9.62;65.45;98122.16;6248317;28;20230;-53
2023/10/16 14:57:24;;;;;;;0.60;0.40;;;;;;;9.55;66.74;98123.03;6253078;28;20243;-53
2023/10/16 15:00:35;;;;;;;1.33;0.80;;;;;;;9.50;67.99;98117.59;6253245;28;20594;-53
2023/10/16 15:03:38;;;;;;;2.40;0.80;;;;;;;9.36;68.93;98117.97;6234555;28;20242;-54
2023/10/16 15:06:41;;;;;;;2.13;1.00;;;;;;;9.28;70.10;98124.41;6253969;28;20233;-53
2023/10/16 15:09:44;;;;;;;1.53;0.83;;;;;;;9.19;71.02;98120.41;6254958;28;20317;-55
2023/10/16 15:12:47;;;;;;;1.03;0.70;;;;;;;9.13;71.46;98123.97;6255922;28;20323;-52
2023/10/16 15:15:50;;;;;;;3.43;1.13;;;;;;;9.01;73.32;98123.88;6251821;28;20703;-53
2023/10/16 15:18:52;;;;;;;2.43;0.90;;;;;;;8.85;74.65;98113.84;6247546;28;20239;-52
2023/10/16 15:21:55;;;;;;;3.53;0.50;;;;;;;8.73;74.48;98124.38;6241953;28;20240;-53
2023/10/16 15:24:57;;;;;;;2.37;0.83;;;;;;;8.58;75.74;98113.28;6243243;28;20646;-54
2023/10/16 15:27:59;;;;;;;1.40;0.80;;;;;;;8.45;77.18;98120.31;6252488;28;20239;-55
2023/10/16 15:31:01;;;;;;;2.07;0.97;;;;;;;8.30;79.06;98125.13;6240475;28;20634;-54
2023/10/16 15:34:08;;;;;;;3.17;0.73;;;;;;;8.18;80.00;98114.38;6246625;28;20236;-53
2023/10/16 15:37:12;;;;;;;2.87;1.00;;;;;;;8.07;79.62;98128.31;6237215;28;20313;-53
2023/10/16 15:40:17;;;;;;;1.40;0.80;;;;;;;7.95;80.70;98128.22;6229070;28;20239;-51
2023/10/16 15:43:20;;;;;;;2.30;0.70;;;;;;;7.81;81.80;98131.16;6256518;28;20242;-52
2023/10/16 15:46:30;;;;;;;1.60;0.87;;;;;;;7.53;83.67;98112.94;6262493;28;20226;-53
2023/10/16 15:49:36;;;;;;;1.47;0.70;;;;;;;7.50;84.36;98136.19;6249107;28;20305;-54
2023/10/16 15:52:40;;;;;;;1.97;0.80;;;;;;;7.33;85.60;98135.03;6255558;28;20309;-52
2023/10/16 15:55:46;;;;;;;2.30;0.80;;;;;;;7.22;84.89;98133.84;6251231;28;20228;-54
2023/10/16 15:58:50;;;;;;;4.03;0.70;;;;;;;7.05;85.71;98139.84;6240644;28;20684;-53
2023/10/16 16:01:53;;;;;;;1.17;0.80;;;;;;;6.82;86.81;98127.84;6250792;28;20226;-53
2023/10/16 16:04:57;;;;;;;2.03;0.90;;;;;;;6.73;87.46;98137.84;6247852;28;20318;-53
2023/10/16 16:08:05;;;;;;;1.37;0.80;;;;;;;6.60;87.85;98144.97;6245346;28;20246;-53
2023/10/16 16:11:13;;;;;;;1.57;0.80;;;;;;;6.45;88.19;98150.47;6251140;28;20234;-54
2023/10/16 16:14:18;;;;;;;1.67;0.70;;;;;;;6.27;87.89;98150.28;6249996;28;20230;-54
2023/10/16 16:17:23;;;;;;;1.40;1.00;;;;;;;6.08;89.25;98147.41;6246259;28;20369;-54